Time;durP1;ratioP1;P1;durP2;ratioP2;P2;SDS_P1;SDS_P2;PMS_P1;PMS_P2;Temp;Humidity;BMP_temperature;BMP_pressure;BME280_temperature;BME280_humidity;BME280_pressure;Samples;Min_cycle;Max_cycle;Signal;HPM_P1;HPM_P2
2024/01/20 00:00:49;;;;;;;;;;;;;;;-0.13;61.54;99831.78;4509767;31;33084;-87
2024/01/20 00:03:17;;;;;;;;;;;;;;;-0.01;61.73;99839.34;4496474;31;31993;-87
2024/01/20 00:05:45;;;;;;;;;;;;;;;0.40;60.55;99829.25;4509739;31;34747;-88
2024/01/20 00:08:12;;;;;;;;;;;;;;;0.02;61.88;99838.69;4510988;31;34214;-87
2024/01/20 00:10:40;;;;;;;;;;;;;;;-0.22;62.38;99848.16;4503554;31;33186;-90
2024/01/20 00:13:07;;;;;;;;;;;;;;;-0.46;63.45;99852.47;4496797;31;34258;-88
2024/01/20 00:15:36;;;;;;;;;;;;;;;-0.71;64.02;99857.59;4510997;31;34550;-87
2024/01/20 00:18:03;;;;;;;;;;;;;;;-0.49;63.40;99850.63;4510808;31;34292;-87
2024/01/20 00:20:31;;;;;;;;;;;;;;;-1.04;64.82;99857.91;4489982;31;33793;-87
2024/01/20 00:22:58;;;;;;;;;;;;;;;-0.71;64.44;99865.25;4483197;31;32826;-87
2024/01/20 00:25:26;;;;;;;;;;;;;;;-0.68;64.12;99855.25;4510897;31;34934;-88
2024/01/20 00:27:54;;;;;;;;;;;;;;;-0.14;62.56;99862.28;4496316;31;34800;-87
2024/01/20 00:30:22;;;;;;;;;;;;;;;-0.12;61.99;99869.22;4510749;31;33887;-87
2024/01/20 00:32:49;;;;;;;;;;;;;;;-0.10;62.58;99871.91;4496377;31;32828;-88
2024/01/20 00:35:17;;;;;;;;;;;;;;;0.03;62.17;99871.91;4478972;32;34789;-87
2024/01/20 00:37:44;;;;;;;;;;;;;;;-0.30;62.61;99860.41;4480581;32;33791;-87
2024/01/20 00:40:12;;;;;;;;;;;;;;;0.01;61.92;99860.75;4480270;32;34019;-88
2024/01/20 00:42:39;;;;;;;;;;;;;;;-1.03;65.08;99852.03;4494694;32;33105;-87
2024/01/20 00:45:08;;;;;;;;;;;;;;;-0.78;65.15;99851.19;4494925;31;33649;-88
2024/01/20 00:47:35;;;;;;;;;;;;;;;-0.87;65.32;99863.28;4467511;32;34595;-92
2024/01/20 00:50:06;;;;;;;;;;;;;;;-0.61;64.39;99857.44;4502731;31;34785;-91
2024/01/20 00:52:33;;;;;;;;;;;;;;;-0.88;65.37;99864.94;4510871;31;33174;-90
2024/01/20 00:55:00;;;;;;;;;;;;;;;-1.20;66.22;99874.56;4510565;31;33789;-90
2024/01/20 00:57:28;;;;;;;;;;;;;;;-0.75;65.03;99874.34;4496020;31;33743;-90
2024/01/20 00:59:55;;;;;;;;;;;;;;;-0.85;65.32;99871.94;4488619;32;33919;-91
2024/01/20 01:02:24;;;;;;;;;;;;;;;-0.87;65.24;99887.09;4469189;32;32379;-90
2024/01/20 01:04:51;;;;;;;;;;;;;;;-0.95;65.27;99895.84;4484236;32;34964;-93
2024/01/20 01:07:19;;;;;;;;;;;;;;;-1.17;66.41;99903.66;4484108;32;34102;-89
2024/01/20 01:09:46;;;;;;;;;;;;;;;-1.29;66.78;99902.75;4484046;32;34044;-90
2024/01/20 01:12:14;;;;;;;;;;;;;;;-1.04;65.84;99906.28;4469613;32;33232;-89
2024/01/20 01:14:41;;;;;;;;;;;;;;;-1.11;66.46;99908.28;4476600;31;33786;-89
2024/01/20 01:17:08;;;;;;;;;;;;;;;-0.52;64.42;99916.66;4499810;31;33728;-91
2024/01/20 01:19:36;;;;;;;;;;;;;;;-0.88;65.11;99904.78;4499525;31;34669;-89
2024/01/20 01:22:03;;;;;;;;;;;;;;;-1.24;66.39;99914.16;4500136;31;32948;-90
2024/01/20 01:24:31;;;;;;;;;;;;;;;-1.72;67.99;99909.84;4494054;31;34106;-90
2024/01/20 01:26:58;;;;;;;;;;;;;;;-1.50;67.17;99918.28;4483864;32;35115;-91
2024/01/20 01:29:25;;;;;;;;;;;;;;;-0.86;65.45;99913.44;4483731;32;33537;-90
2024/01/20 01:31:53;;;;;;;;;;;;;;;-1.68;67.57;99919.47;4470080;32;33307;-89
2024/01/20 01:34:20;;;;;;;;;;;;;;;-1.50;67.46;99915.72;4456547;32;34133;-89
2024/01/20 01:36:48;;;;;;;;;;;;;;;-1.58;68.01;99915.97;4469758;32;34354;-90
2024/01/20 01:39:17;;;;;;;;;;;;;;;-1.42;67.61;99915.41;4489126;31;34150;-90
2024/01/20 01:41:44;;;;;;;;;;;;;;;-1.32;67.45;99912.75;4485554;31;33773;-91
2024/01/20 01:44:12;;;;;;;;;;;;;;;-1.48;67.67;99915.81;4472134;31;32938;-90
2024/01/20 01:46:39;;;;;;;;;;;;;;;-1.26;66.74;99908.06;4472567;31;34381;-90
2024/01/20 01:49:07;;;;;;;;;;;;;;;-1.28;67.36;99914.72;4480848;32;34674;-92
2024/01/20 01:51:34;;;;;;;;;;;;;;;-1.11;66.10;99914.25;4469680;32;33437;-91
2024/01/20 01:54:02;;;;;;;;;;;;;;;-1.17;66.59;99912.97;4469713;32;33932;-91
2024/01/20 01:56:29;;;;;;;;;;;;;;;-1.29;66.95;99918.94;4469306;32;34824;-91
2024/01/20 01:58:57;;;;;;;;;;;;;;;-1.41;67.62;99929.88;4469312;32;33536;-91
2024/01/20 02:01:24;;;;;;;;;;;;;;;-1.22;66.94;99916.03;4469595;32;33365;-90
2024/01/20 02:03:52;;;;;;;;;;;;;;;-1.59;67.90;99922.72;4470285;31;34842;-92
2024/01/20 02:06:20;;;;;;;;;;;;;;;-1.54;67.59;99920.50;4485674;31;34119;-91
2024/01/20 02:08:47;;;;;;;;;;;;;;;-1.35;67.05;99931.22;4472378;31;33520;-90
2024/01/20 02:11:15;;;;;;;;;;;;;;;-1.53;67.63;99945.13;4485073;31;32682;-89
2024/01/20 02:13:42;;;;;;;;;;;;;;;-1.39;66.79;99946.16;4482605;31;33686;-90
2024/01/20 02:16:09;;;;;;;;;;;;;;;-0.94;65.69;99935.81;4472277;31;33875;-92
2024/01/20 02:18:36;;;;;;;;;;;;;;;-0.91;65.07;99947.84;4484964;31;33822;-90
2024/01/20 02:21:05;;;;;;;;;;;;;;;-1.04;65.87;99936.81;4460945;32;31903;-90
2024/01/20 02:23:33;;;;;;;;;;;;;;;-0.75;64.99;99948.16;4469328;32;34138;-90
2024/01/20 02:26:00;;;;;;;;;;;;;;;-1.04;65.54;99947.00;4469122;32;35281;-90
2024/01/20 02:28:28;;;;;;;;;;;;;;;-0.86;64.84;99947.41;4469013;31;32777;-90
2024/01/20 02:30:55;;;;;;;;;;;;;;;-1.45;66.70;99958.41;4484540;31;33987;-89
2024/01/20 02:33:22;;;;;;;;;;;;;;;-0.99;65.20;99943.09;4484734;31;33164;-92
2024/01/20 02:35:50;;;;;;;;;;;;;;;-0.79;64.51;99946.19;4485146;31;33769;-93
2024/01/20 02:38:17;;;;;;;;;;;;;;;-1.31;66.15;99952.66;4479869;32;33185;-90
2024/01/20 02:40:44;;;;;;;;;;;;;;;-1.10;65.65;99950.75;4455950;32;33324;-89
2024/01/20 02:43:12;;;;;;;;;;;;;;;-1.44;66.80;99952.53;4456227;32;34077;-90
2024/01/20 02:45:39;;;;;;;;;;;;;;;-1.17;66.04;99939.28;4483420;32;33951;-90
2024/01/20 02:48:06;;;;;;;;;;;;;;;-1.00;65.36;99948.09;4486819;31;33645;-91
2024/01/20 02:50:34;;;;;;;;;;;;;;;-1.40;66.69;99951.97;4498999;31;33070;-92
2024/01/20 02:53:01;;;;;;;;;;;;;;;-1.64;67.32;99949.44;4484545;31;34402;-90
2024/01/20 02:55:28;;;;;;;;;;;;;;;-1.45;67.56;99960.94;4484608;31;33689;-92
2024/01/20 02:57:56;;;;;;;;;;;;;;;-1.44;67.34;99965.25;4484603;31;34374;-90
2024/01/20 03:00:23;;;;;;;;;;;;;;;-1.23;66.44;99967.69;4499169;31;34009;-92
2024/01/20 03:02:50;;;;;;;;;;;;;;;-1.53;67.57;99973.97;4481142;32;34944;-90
2024/01/20 03:05:18;;;;;;;;;;;;;;;-1.17;66.74;99979.09;4483451;32;34327;-89
2024/01/20 03:07:45;;;;;;;;;;;;;;;-0.96;65.66;99974.66;4483250;32;34265;-90
2024/01/20 03:10:13;;;;;;;;;;;;;;;-1.30;66.56;99977.31;4482997;32;33348;-91
2024/01/20 03:12:40;;;;;;;;;;;;;;;-1.07;65.81;99977.31;4470359;31;33098;-90
2024/01/20 03:15:07;;;;;;;;;;;;;;;-1.00;65.74;99971.88;4471725;31;33930;-90
2024/01/20 03:17:35;;;;;;;;;;;;;;;-1.37;66.65;99975.97;4498826;31;33514;-89
2024/01/20 03:20:03;;;;;;;;;;;;;;;-1.38;67.32;99991.13;4471573;31;32330;-94
2024/01/20 03:22:31;;;;;;;;;;;;;;;-1.15;66.45;99992.81;4495147;31;34101;-89
2024/01/20 03:24:58;;;;;;;;;;;;;;;-0.95;66.09;99995.09;4482574;32;34109;-92
2024/01/20 03:27:25;;;;;;;;;;;;;;;-1.29;66.72;100001.97;4468670;32;33971;-88
2024/01/20 03:29:52;;;;;;;;;;;;;;;-0.58;64.58;100006.22;4483098;32;33992;-88
2024/01/20 03:32:20;;;;;;;;;;;;;;;-1.09;65.72;100009.41;4470521;31;34487;-89
2024/01/20 03:34:47;;;;;;;;;;;;;;;-1.11;66.29;100010.94;4498736;31;35711;-89
2024/01/20 03:37:14;;;;;;;;;;;;;;;-1.20;66.69;100015.38;4484684;31;33803;-89
2024/01/20 03:39:42;;;;;;;;;;;;;;;-0.84;65.63;100006.06;4498453;31;33801;-89
2024/01/20 03:42:09;;;;;;;;;;;;;;;-0.75;64.97;100007.59;4484277;31;33072;-89
2024/01/20 03:44:36;;;;;;;;;;;;;;;-0.85;65.08;100014.47;4484284;31;35240;-92
2024/01/20 03:47:03;;;;;;;;;;;;;;;-1.02;65.62;100014.16;4481945;31;33580;-89
2024/01/20 03:49:31;;;;;;;;;;;;;;;-1.31;66.56;100021.34;4482622;32;32935;-91
2024/01/20 03:51:58;;;;;;;;;;;;;;;-1.05;65.75;100026.66;4455526;32;33289;-89
2024/01/20 03:54:26;;;;;;;;;;;;;;;-0.78;64.95;100034.50;4477455;31;34350;-89
2024/01/20 03:56:53;;;;;;;;;;;;;;;-1.34;66.25;100031.28;4483966;31;34736;-94
2024/01/20 03:59:20;;;;;;;;;;;;;;;-1.28;66.60;100030.09;4483802;31;32122;-91
2024/01/20 04:01:48;;;;;;;;;;;;;;;-1.14;65.72;100033.63;4498322;31;34837;-93
2024/01/20 04:04:15;;;;;;;;;;;;;;;-0.66;64.50;100044.69;4489577;31;34385;-90
2024/01/20 04:06:43;;;;;;;;;;;;;;;-0.93;65.00;100043.59;4482537;32;34667;-91
2024/01/20 04:09:11;;;;;;;;;;;;;;;-0.65;63.95;100041.34;4482276;32;33988;-89
2024/01/20 04:11:38;;;;;;;;;;;;;;;-0.65;64.10;100033.69;4482913;32;33452;-92
2024/01/20 04:14:06;;;;;;;;;;;;;;;-0.44;63.60;100035.22;4468288;32;34058;-90
2024/01/20 04:16:33;;;;;;;;;;;;;;;-0.51;63.94;100033.03;4468200;32;34519;-90
2024/01/20 04:19:00;;;;;;;;;;;;;;;-0.70;64.81;100043.56;4456281;32;33989;-90
2024/01/20 04:21:28;;;;;;;;;;;;;;;-1.00;65.54;100030.41;4482342;32;34506;-89
2024/01/20 04:23:55;;;;;;;;;;;;;;;-1.24;66.21;100023.56;4482090;32;33861;-93
2024/01/20 04:26:22;;;;;;;;;;;;;;;-1.65;67.72;100018.84;4468098;32;34231;-89
2024/01/20 04:28:50;;;;;;;;;;;;;;;-2.00;69.50;100024.72;4467789;32;32813;-89
2024/01/20 04:31:17;;;;;;;;;;;;;;;-1.90;69.23;100020.31;4471344;31;34201;-91
2024/01/20 04:33:44;;;;;;;;;;;;;;;-2.14;69.93;100010.09;4498182;31;34125;-91
2024/01/20 04:36:12;;;;;;;;;;;;;;;-2.19;70.21;100025.75;4471169;31;32812;-91
2024/01/20 04:38:39;;;;;;;;;;;;;;;-1.82;69.21;100025.25;4483425;31;33826;-90
2024/01/20 04:41:06;;;;;;;;;;;;;;;-1.51;68.44;100033.47;4459418;31;34238;-89
2024/01/20 04:43:34;;;;;;;;;;;;;;;-1.77;68.53;100030.66;4467265;32;33208;-92
2024/01/20 04:46:01;;;;;;;;;;;;;;;-2.02;69.58;100051.66;4483861;32;33920;-92
2024/01/20 04:48:30;;;;;;;;;;;;;;;-2.06;69.73;100057.28;4484273;32;32810;-90
2024/01/20 04:50:58;;;;;;;;;;;;;;;-1.82;68.94;100059.91;4484090;32;33503;-93
2024/01/20 04:53:25;;;;;;;;;;;;;;;-1.74;68.43;100067.37;4467712;32;34385;-90
2024/01/20 04:55:53;;;;;;;;;;;;;;;-1.30;66.71;100085.03;4484287;32;33935;-89
2024/01/20 04:58:20;;;;;;;;;;;;;;;-1.65;68.25;100079.00;4484536;32;33278;-89
2024/01/20 05:00:47;;;;;;;;;;;;;;;-1.31;66.89;100083.28;4484239;32;34682;-89
2024/01/20 05:03:15;;;;;;;;;;;;;;;-1.10;65.39;100088.16;4482837;32;34089;-92
2024/01/20 05:05:42;;;;;;;;;;;;;;;-1.75;68.12;100098.63;4482902;32;33869;-88
2024/01/20 05:08:09;;;;;;;;;;;;;;;-1.39;67.30;100098.75;4484100;31;33895;-88
2024/01/20 05:10:37;;;;;;;;;;;;;;;-1.30;66.61;100109.59;4484016;32;33697;-91
2024/01/20 05:13:04;;;;;;;;;;;;;;;-1.60;67.39;100106.53;4483981;32;34304;-89
2024/01/20 05:15:31;;;;;;;;;;;;;;;-1.58;67.56;100106.66;4469564;32;33116;-90
2024/01/20 05:17:59;;;;;;;;;;;;;;;-0.90;65.48;100110.88;4469857;32;34198;-90
2024/01/20 05:20:26;;;;;;;;;;;;;;;-1.25;65.81;100111.72;4469622;32;34044;-89
2024/01/20 05:22:54;;;;;;;;;;;;;;;-1.13;65.87;100118.50;4472670;31;33577;-89
2024/01/20 05:25:21;;;;;;;;;;;;;;;-0.99;65.20;100125.47;4485409;31;33706;-89
2024/01/20 05:27:48;;;;;;;;;;;;;;;-0.88;64.56;100116.94;4499747;31;33775;-90
2024/01/20 05:30:16;;;;;;;;;;;;;;;-1.38;66.26;100115.78;4485269;31;34155;-90
2024/01/20 05:32:43;;;;;;;;;;;;;;;-0.78;64.60;100126.16;4469828;31;33773;-89
2024/01/20 05:35:13;;;;;;;;;;;;;;;-0.77;64.18;100125.37;4470744;31;34388;-91
2024/01/20 05:37:40;;;;;;;;;;;;;;;-1.55;67.18;100134.88;4483000;31;32414;-89
2024/01/20 05:40:08;;;;;;;;;;;;;;;-0.92;64.78;100134.44;4469341;32;33153;-89
2024/01/20 05:42:35;;;;;;;;;;;;;;;-0.60;63.68;100137.69;4483857;32;33934;-92
2024/01/20 05:45:02;;;;;;;;;;;;;;;-1.48;66.39;100130.34;4469495;32;33202;-95
2024/01/20 05:47:30;;;;;;;;;;;;;;;-0.68;64.30;100135.34;4483763;32;33402;-90
2024/01/20 05:49:57;;;;;;;;;;;;;;;-1.28;66.15;100129.31;4465022;31;32668;-88
2024/01/20 05:52:24;;;;;;;;;;;;;;;-1.32;66.50;100134.06;4472022;31;33950;-90
2024/01/20 05:54:52;;;;;;;;;;;;;;;-1.65;67.77;100138.34;4485271;31;33459;-89
2024/01/20 05:57:19;;;;;;;;;;;;;;;-1.13;65.94;100142.28;4469066;31;34367;-89
2024/01/20 05:59:46;;;;;;;;;;;;;;;-1.40;66.81;100153.81;4482633;31;34373;-89
2024/01/20 06:02:14;;;;;;;;;;;;;;;-2.01;68.47;100154.19;4499899;31;33950;-89
2024/01/20 06:04:41;;;;;;;;;;;;;;;-1.97;68.93;100156.19;4498076;31;34479;-90
2024/01/20 06:07:08;;;;;;;;;;;;;;;-2.34;70.10;100147.38;4464763;31;33164;-89
2024/01/20 06:09:36;;;;;;;;;;;;;;;-1.91;69.03;100160.88;4477549;31;33684;-91
2024/01/20 06:12:03;;;;;;;;;;;;;;;-2.01;68.92;100160.19;4480707;31;34879;-89
2024/01/20 06:14:31;;;;;;;;;;;;;;;-2.06;69.31;100171.59;4496230;31;34021;-89
2024/01/20 06:16:58;;;;;;;;;;;;;;;-1.59;67.56;100161.72;4489141;31;33297;-89
2024/01/20 06:19:25;;;;;;;;;;;;;;;-1.65;67.28;100171.41;4484333;31;34009;-89
2024/01/20 06:21:53;;;;;;;;;;;;;;;-1.87;68.65;100184.09;4485811;31;34403;-89
2024/01/20 06:24:20;;;;;;;;;;;;;;;-1.45;67.28;100175.47;4483378;31;34338;-89
2024/01/20 06:26:47;;;;;;;;;;;;;;;-1.30;66.78;100185.91;4462543;31;33324;-87
2024/01/20 06:29:14;;;;;;;;;;;;;;;-1.23;66.83;100183.06;4498831;31;34040;-90
2024/01/20 06:31:42;;;;;;;;;;;;;;;-1.82;67.81;100200.63;4499013;31;35046;-89
2024/01/20 06:34:09;;;;;;;;;;;;;;;-1.51;66.88;100201.31;4484818;31;34246;-87
2024/01/20 06:36:37;;;;;;;;;;;;;;;-1.36;66.44;100193.97;4483940;31;33149;-90
2024/01/20 06:39:04;;;;;;;;;;;;;;;-1.48;66.62;100196.47;4472009;32;34197;-90
2024/01/20 06:41:32;;;;;;;;;;;;;;;-1.10;65.47;100203.59;4482501;32;35303;-89
2024/01/20 06:43:59;;;;;;;;;;;;;;;-1.16;65.46;100200.56;4460620;32;33318;-88
2024/01/20 06:46:26;;;;;;;;;;;;;;;-1.11;65.21;100199.25;4481887;32;33834;-90
2024/01/20 06:48:54;;;;;;;;;;;;;;;-1.07;65.41;100203.78;4457912;32;34101;-89
2024/01/20 06:51:25;;;;;;;;;;;;;;;-1.04;65.53;100220.97;4469202;32;34060;-91
2024/01/20 06:53:57;;;;;;;;;;;;;;;-1.48;66.32;100232.09;4483380;32;34611;-93
2024/01/20 06:56:25;;;;;;;;;;;;;;;-1.57;66.80;100244.06;4483322;32;33121;-92
2024/01/20 06:58:53;;;;;;;;;;;;;;;-1.15;65.88;100232.88;4481732;32;34234;-91
2024/01/20 07:01:23;;;;;;;;;;;;;;;-1.11;65.64;100242.50;4482587;32;33900;-89
2024/01/20 07:03:50;;;;;;;;;;;;;;;-1.05;65.45;100250.63;4481999;32;33766;-93
2024/01/20 07:06:24;;;;;;;;;;;;;;;-1.32;65.79;100259.56;4481044;32;32485;-90
2024/01/20 07:08:52;;;;;;;;;;;;;;;-1.17;65.82;100254.78;4469220;32;33048;-90
2024/01/20 07:11:19;;;;;;;;;;;;;;;-0.76;64.61;100259.53;4483385;32;34101;-89
2024/01/20 07:13:47;;;;;;;;;;;;;;;-1.15;65.55;100268.50;4484720;31;33973;-89
2024/01/20 07:16:14;;;;;;;;;;;;;;;-1.14;65.22;100277.87;4468904;32;33347;-90
2024/01/20 07:18:42;;;;;;;;;;;;;;;-1.27;65.94;100270.09;4483016;31;35040;-90
2024/01/20 07:21:09;;;;;;;;;;;;;;;-1.23;65.65;100277.19;4483579;31;33973;-89
2024/01/20 07:23:36;;;;;;;;;;;;;;;-1.33;65.90;100282.34;4483454;31;34036;-89
2024/01/20 07:26:04;;;;;;;;;;;;;;;-0.91;64.70;100279.66;4495595;31;33203;-92
2024/01/20 07:28:31;;;;;;;;;;;;;;;-1.12;65.37;100290.75;4456689;32;33385;-89
2024/01/20 07:30:58;;;;;;;;;;;;;;;-0.91;65.31;100291.47;4470454;31;35319;-89
2024/01/20 07:33:26;;;;;;;;;;;;;;;-0.86;64.78;100297.84;4478632;32;33751;-91
2024/01/20 07:35:53;;;;;;;;;;;;;;;-1.28;66.26;100303.94;4471023;31;32918;-92
2024/01/20 07:38:21;;;;;;;;;;;;;;;-1.31;66.37;100309.69;4490807;31;33946;-91
2024/01/20 07:40:48;;;;;;;;;;;;;;;-1.02;65.74;100306.84;4468884;31;33387;-87
2024/01/20 07:43:15;;;;;;;;;;;;;;;-1.07;65.50;100312.34;4468861;31;33334;-88
2024/01/20 07:45:42;;;;;;;;;;;;;;;-0.96;65.73;100302.97;4473731;32;33489;-89
2024/01/20 07:48:10;;;;;;;;;;;;;;;-1.10;66.72;100313.00;4457337;32;33887;-90
2024/01/20 07:50:37;;;;;;;;;;;;;;;-0.51;64.87;100318.31;4468192;32;34183;-92
2024/01/20 07:53:05;;;;;;;;;;;;;;;-0.20;63.72;100311.25;4455102;32;33128;-91
2024/01/20 07:55:32;;;;;;;;;;;;;;;-1.01;65.81;100325.53;4475192;31;34235;-90
2024/01/20 07:57:59;;;;;;;;;;;;;;;-1.00;65.93;100328.19;4488413;31;34264;-89
2024/01/20 08:00:27;;;;;;;;;;;;;;;-0.75;65.60;100332.63;4468230;32;32825;-89
2024/01/20 08:02:54;;;;;;;;;;;;;;;-0.71;65.23;100333.75;4455649;32;32654;-92
2024/01/20 08:05:22;;;;;;;;;;;;;;;-0.31;64.20;100324.87;4482839;32;33851;-91
2024/01/20 08:07:49;;;;;;;;;;;;;;;-0.59;64.94;100327.91;4456631;32;33323;-90
2024/01/20 08:10:17;;;;;;;;;;;;;;;-0.95;66.32;100343.81;4482520;32;34008;-90
2024/01/20 08:12:44;;;;;;;;;;;;;;;-1.08;66.61;100347.09;4484006;32;34895;-90
2024/01/20 08:15:11;;;;;;;;;;;;;;;-0.55;65.55;100347.75;4484511;32;33067;-92
2024/01/20 08:17:39;;;;;;;;;;;;;;;-0.71;65.85;100354.12;4478952;31;34116;-89
2024/01/20 08:20:10;;;;;;;;;;;;;;;-0.87;66.47;100359.69;4458603;32;34777;-91
2024/01/20 08:22:37;;;;;;;;;;;;;;;-0.67;65.96;100351.91;4484354;32;34168;-91
2024/01/20 08:25:05;;;;;;;;;;;;;;;-0.10;64.28;100349.41;4469359;32;32575;-91
2024/01/20 08:27:32;;;;;;;;;;;;;;;-0.86;66.26;100362.34;4484436;31;34180;-91
2024/01/20 08:30:00;;;;;;;;;;;;;;;-0.56;65.70;100361.25;4475214;31;35834;-92
2024/01/20 08:32:27;;;;;;;;;;;;;;;-0.32;64.66;100351.12;4500347;31;33678;-90
2024/01/20 08:34:54;;;;;;;;;;;;;;;-0.27;64.79;100352.34;4489545;31;33314;-90
2024/01/20 08:37:22;;;;;;;;;;;;;;;-0.21;64.67;100352.81;4484404;32;33934;-92
2024/01/20 08:39:49;;;;;;;;;;;;;;;-0.53;65.63;100369.16;4457363;32;33646;-90
2024/01/20 08:42:17;;;;;;;;;;;;;;;-0.56;65.84;100356.16;4484216;32;34617;-90
2024/01/20 08:44:44;;;;;;;;;;;;;;;-0.58;66.05;100356.81;4470110;32;32871;-91
2024/01/20 08:47:12;;;;;;;;;;;;;;;-0.41;65.89;100360.66;4484486;32;34163;-90
2024/01/20 08:49:39;;;;;;;;;;;;;;;-0.27;65.18;100365.09;4470093;32;34215;-92
2024/01/20 08:52:07;;;;;;;;;;;;;;;-0.22;64.69;100368.91;4485949;31;32962;-91
2024/01/20 08:54:34;;;;;;;;;;;;;;;-0.54;65.67;100374.97;4485917;31;32835;-92
2024/01/20 08:57:02;;;;;;;;;;;;;;;0.23;63.45;100365.41;4492526;31;33554;-91
2024/01/20 08:59:29;;;;;;;;;;;;;;;0.13;63.84;100373.16;4483597;32;34399;-90
2024/01/20 09:01:57;;;;;;;;;;;;;;;0.40;63.17;100371.72;4499658;31;33832;-91
2024/01/20 09:04:24;;;;;;;;;;;;;;;0.21;63.27;100383.13;4491622;31;32648;-91
2024/01/20 09:06:51;;;;;;;;;;;;;;;0.35;62.99;100398.56;4484047;32;34905;-90
2024/01/20 09:09:19;;;;;;;;;;;;;;;0.72;61.49;100394.44;4484502;32;35213;-90
2024/01/20 09:11:46;;;;;;;;;;;;;;;0.33;62.20;100393.34;4484299;32;33819;-90
2024/01/20 09:14:15;;;;;;;;;;;;;;;0.99;60.93;100399.72;4483255;32;33399;-88
2024/01/20 09:16:42;;;;;;;;;;;;;;;1.03;61.17;100404.28;4484367;31;33991;-90
2024/01/20 09:19:09;;;;;;;;;;;;;;;0.95;61.05;100408.84;4481187;32;34072;-89
2024/01/20 09:21:37;;;;;;;;;;;;;;;1.13;60.03;100411.78;4483473;32;33848;-89
2024/01/20 09:24:05;;;;;;;;;;;;;;;1.31;59.23;100409.63;4469891;32;33361;-88
2024/01/20 09:26:32;;;;;;;;;;;;;;;0.80;61.13;100403.53;4484116;32;35083;-89
2024/01/20 09:29:00;;;;;;;;;;;;;;;0.77;61.67;100408.41;4469439;32;35002;-90
2024/01/20 09:31:27;;;;;;;;;;;;;;;0.95;60.72;100403.75;4483784;32;33952;-90
2024/01/20 09:33:54;;;;;;;;;;;;;;;1.32;59.73;100401.16;4483689;32;32863;-88
2024/01/20 09:36:23;;;;;;;;;;;;;;;1.05;60.62;100397.59;4469571;32;33783;-90
2024/01/20 09:38:51;;;;;;;;;;;;;;;0.91;61.28;100397.53;4469889;32;34257;-89
2024/01/20 09:41:18;;;;;;;;;;;;;;;1.26;60.20;100394.00;4469812;32;33960;-91
2024/01/20 09:43:46;;;;;;;;;;;;;;;0.56;62.00;100404.31;4484103;31;33220;-90
2024/01/20 09:46:13;;;;;;;;;;;;;;;0.71;61.61;100402.84;4499928;31;33734;-90
2024/01/20 09:48:41;;;;;;;;;;;;;;;0.53;62.36;100391.31;4485457;31;33986;-92
2024/01/20 09:51:08;;;;;;;;;;;;;;;0.70;61.85;100391.78;4485505;31;34240;-91
2024/01/20 09:53:36;;;;;;;;;;;;;;;0.48;62.36;100393.56;4499836;31;33198;-91
2024/01/20 09:56:03;;;;;;;;;;;;;;;0.70;62.22;100389.22;4485452;31;34260;-90
2024/01/20 09:58:30;;;;;;;;;;;;;;;0.78;61.60;100383.78;4485195;31;34739;-91
2024/01/20 10:00:58;;;;;;;;;;;;;;;1.00;60.85;100375.97;4485487;31;34448;-91
2024/01/20 10:03:25;;;;;;;;;;;;;;;0.89;61.24;100378.63;4499638;31;33736;-91
2024/01/20 10:05:53;;;;;;;;;;;;;;;1.45;59.24;100380.81;4485404;31;33423;-90
2024/01/20 10:08:20;;;;;;;;;;;;;;;1.45;58.83;100378.25;4500600;31;34392;-90
2024/01/20 10:10:48;;;;;;;;;;;;;;;1.25;59.94;100379.44;4485540;31;33896;-91
2024/01/20 10:13:15;;;;;;;;;;;;;;;1.34;59.43;100369.84;4472070;31;33203;-91
2024/01/20 10:15:42;;;;;;;;;;;;;;;1.40;59.39;100380.50;4485192;31;33982;-91
2024/01/20 10:18:10;;;;;;;;;;;;;;;1.62;58.71;100367.47;4499572;31;34685;-91
2024/01/20 10:20:38;;;;;;;;;;;;;;;2.04;57.29;100375.34;4472144;31;33103;-91
2024/01/20 10:23:06;;;;;;;;;;;;;;;1.36;58.85;100378.47;4472099;31;32132;-90
2024/01/20 10:25:35;;;;;;;;;;;;;;;1.54;58.43;100383.09;4485424;31;34255;-91
2024/01/20 10:28:02;;;;;;;;;;;;;;;1.30;58.52;100380.63;4472088;31;35178;-90
2024/01/20 10:30:30;;;;;;;;;;;;;;;1.89;56.79;100368.44;4485065;31;33792;-90
2024/01/20 10:33:02;;;;;;;;;;;;;;;1.36;58.74;100383.59;4498945;31;33217;-90
2024/01/20 10:35:37;;;;;;;;;;;;;;;1.25;58.97;100384.56;4474147;31;34168;-90
2024/01/20 10:38:09;;;;;;;;;;;;;;;1.35;59.13;100379.28;4485161;31;34315;-90
2024/01/20 10:40:36;;;;;;;;;;;;;;;1.54;58.72;100377.97;4484834;31;33666;-93
2024/01/20 10:43:13;;;;;;;;;;;;;;;1.68;58.19;100383.25;4472417;31;33083;-92
2024/01/20 10:46:01;;;;;;;;;;;;;;;2.14;57.04;100370.94;4485227;31;33365;-90
2024/01/20 10:48:30;;;;;;;;;;;;;;;2.11;57.24;100380.09;4485104;31;34070;-93
2024/01/20 10:50:58;;;;;;;;;;;;;;;2.36;56.70;100391.16;4485298;31;33623;-91
2024/01/20 10:53:25;;;;;;;;;;;;;;;2.49;56.11;100389.37;4499400;31;32618;-92
2024/01/20 10:55:53;;;;;;;;;;;;;;;2.28;56.41;100376.97;4472105;31;33745;-91
2024/01/20 10:58:23;;;;;;;;;;;;;;;2.56;56.49;100381.28;4485290;31;34898;-90
2024/01/20 11:00:51;;;;;;;;;;;;;;;2.21;56.36;100372.22;4484833;31;34057;-90
2024/01/20 11:03:18;;;;;;;;;;;;;;;1.90;57.94;100370.22;4499311;31;34061;-91
2024/01/20 11:05:46;;;;;;;;;;;;;;;2.23;57.71;100380.88;4485206;31;34959;-91
2024/01/20 11:08:21;;;;;;;;;;;;;;;2.01;58.42;100375.16;4485299;31;34337;-92
2024/01/20 11:10:50;;;;;;;;;;;;;;;2.39;57.91;100383.66;4499250;31;33797;-91
2024/01/20 11:13:17;;;;;;;;;;;;;;;2.51;56.95;100385.25;4484713;31;33408;-91
2024/01/20 11:15:48;;;;;;;;;;;;;;;2.59;55.79;100386.63;4484799;31;33756;-93
2024/01/20 11:18:17;;;;;;;;;;;;;;;2.54;56.73;100382.84;4484868;31;33926;-89
2024/01/20 11:20:57;;;;;;;;;;;;;;;2.21;57.81;100385.03;4484947;31;33674;-90
2024/01/20 11:23:25;;;;;;;;;;;;;;;2.58;56.93;100387.41;4484647;31;33332;-91
2024/01/20 11:25:53;;;;;;;;;;;;;;;2.81;56.24;100389.75;4471537;31;33252;-92
2024/01/20 11:28:24;;;;;;;;;;;;;;;2.35;57.02;100380.78;4484629;31;35099;-90
2024/01/20 11:30:52;;;;;;;;;;;;;;;2.39;57.11;100380.22;4499016;31;34144;-91
2024/01/20 11:33:19;;;;;;;;;;;;;;;2.49;57.15;100389.37;4484997;31;32889;-91
2024/01/20 11:35:46;;;;;;;;;;;;;;;2.53;56.59;100378.53;4484487;31;33412;-90
2024/01/20 11:38:15;;;;;;;;;;;;;;;2.96;55.50;100384.72;4471569;31;34615;-90
2024/01/20 11:41:01;;;;;;;;;;;;;;;2.75;56.53;100384.22;4475983;31;34135;-90
2024/01/20 11:43:29;;;;;;;;;;;;;;;2.50;56.76;100388.56;4484728;31;33494;-90
2024/01/20 11:45:56;;;;;;;;;;;;;;;2.22;57.40;100384.22;4498536;31;33815;-90
2024/01/20 11:48:24;;;;;;;;;;;;;;;2.46;56.87;100382.38;4458891;31;33233;-90
2024/01/20 11:50:52;;;;;;;;;;;;;;;2.62;56.15;100374.91;4471424;31;34490;-90
2024/01/20 11:53:20;;;;;;;;;;;;;;;2.27;57.42;100372.63;4484412;31;32956;-91
2024/01/20 11:55:51;;;;;;;;;;;;;;;2.01;57.92;100373.50;4484461;31;34155;-90
2024/01/20 11:58:19;;;;;;;;;;;;;;;2.26;58.00;100370.84;4471218;31;33858;-90
2024/01/20 12:00:46;;;;;;;;;;;;;;;1.96;58.64;100369.72;4498607;31;33678;-91
2024/01/20 12:03:13;;;;;;;;;;;;;;;2.37;57.66;100371.56;4484307;31;33174;-90
2024/01/20 12:05:41;;;;;;;;;;;;;;;2.21;57.42;100366.25;4484074;31;33338;-90
2024/01/20 12:08:08;;;;;;;;;;;;;;;2.04;58.06;100362.56;4471034;31;33426;-90
2024/01/20 12:10:35;;;;;;;;;;;;;;;2.73;56.77;100346.50;4484102;31;33588;-90
2024/01/20 12:13:03;;;;;;;;;;;;;;;2.57;57.34;100358.34;4484022;31;33420;-90
2024/01/20 12:15:36;;;;;;;;;;;;;;;3.09;56.02;100345.34;4498269;31;34683;-91
2024/01/20 12:18:04;;;;;;;;;;;;;;;3.21;55.76;100348.66;4498189;31;34406;-90
2024/01/20 12:20:32;;;;;;;;;;;;;;;3.17;55.15;100344.12;4483599;31;33928;-90
2024/01/20 12:22:59;;;;;;;;;;;;;;;3.38;53.71;100340.31;4483644;31;33411;-90
2024/01/20 12:25:27;;;;;;;;;;;;;;;2.70;54.02;100338.66;4483822;31;34498;-91
2024/01/20 12:27:54;;;;;;;;;;;;;;;2.37;53.97;100341.72;4483435;31;34443;-90
2024/01/20 12:30:21;;;;;;;;;;;;;;;2.98;52.67;100343.81;4457758;31;33894;-90
2024/01/20 12:32:49;;;;;;;;;;;;;;;2.58;53.90;100349.00;4483610;31;33595;-91
2024/01/20 12:35:17;;;;;;;;;;;;;;;2.70;53.94;100344.66;4483540;31;35245;-90
2024/01/20 12:37:44;;;;;;;;;;;;;;;2.77;53.63;100339.13;4470686;31;33674;-90
2024/01/20 12:40:12;;;;;;;;;;;;;;;2.83;53.58;100341.19;4498413;31;33489;-91
2024/01/20 12:42:39;;;;;;;;;;;;;;;2.09;55.43;100339.06;4483642;31;34066;-90
2024/01/20 12:45:08;;;;;;;;;;;;;;;2.43;54.61;100338.69;4497896;31;33823;-90